Hampton, Mississippi
Current Conditions -  °F | °C
As of 8:53 PM on Friday 28 Nov 2014 (Local Time) from KGLH Reporting Station
Clear Clear  
Wind Chill: 39°   Ceiling: Unl
Heat Index: 45°   Visibility: 10mi
Dew Point: 32°   Wind: 12mph
Humidity: 60%   Direction: 170°S
Pressure: 30.16"   Gusts: NA
Location:  33.0379°N, 90.9708°W
Report Text: KGLH 290253Z AUTO 17010KT 10SM CLR 07/00 A3016 RMK AO2 SLP220 T00720000 56009
Loading
Personal Weather Stations






























Interactive Weather Map New forecast layout! Learn more

10-Day Weather Forecast

Advertisements
Track Severe Weather on mobile